Time;durP1;ratioP1;P1;durP2;ratioP2;P2;SDS_P1;SDS_P2;PMS_P1;PMS_P2;Temp;Humidity;BMP_temperature;BMP_pressure;BME280_temperature;BME280_humidity;BME280_pressure;Samples;Min_cycle;Max_cycle;Signal;HPM_P1;HPM_P2
2024/04/07 00:01:31;;;;;;;3.78;0.70;;;18.10;96.70;;;;;;5126816;27;20039;-44
2024/04/07 00:03:58;;;;;;;7.72;0.95;;;18.10;96.70;;;;;;5126713;27;20099;-40
2024/04/07 00:06:24;;;;;;;6.72;1.15;;;18.10;96.50;;;;;;5126367;27;20027;-43
2024/04/07 00:08:50;;;;;;;6.55;1.40;;;18.10;96.40;;;;;;5126921;27;20023;-40
2024/04/07 00:11:16;;;;;;;5.35;0.70;;;18.10;96.30;;;;;;5126831;27;20083;-43
2024/04/07 00:13:42;;;;;;;4.15;0.60;;;18.20;96.20;;;;;;5125347;27;20399;-42
2024/04/07 00:16:08;;;;;;;3.55;0.65;;;18.20;96.10;;;;;;5126918;27;20107;-40
2024/04/07 00:18:34;;;;;;;5.97;0.80;;;18.20;95.90;;;;;;5126751;27;20499;-44
2024/04/07 00:21:03;;;;;;;6.05;0.50;;;18.20;95.90;;;;;;5126431;27;20038;-41
2024/04/07 00:23:30;;;;;;;4.05;0.55;;;18.30;95.80;;;;;;5126349;27;20054;-41
2024/04/07 00:25:55;;;;;;;2.10;0.50;;;18.30;95.70;;;;;;5125803;27;20383;-40
2024/04/07 00:28:21;;;;;;;2.53;0.30;;;18.30;95.60;;;;;;5125184;27;20020;-40
2024/04/07 00:30:47;;;;;;;6.88;0.50;;;18.40;95.90;;;;;;5125407;27;20029;-43
2024/04/07 00:33:13;;;;;;;5.35;0.30;;;18.40;95.70;;;;;;5126376;27;20038;-42
2024/04/07 00:35:38;;;;;;;3.38;0.50;;;18.40;95.60;;;;;;5125823;27;20118;-40
2024/04/07 00:38:05;;;;;;;2.10;0.30;;;18.40;95.60;;;;;;5126720;27;20031;-41
2024/04/07 00:40:31;;;;;;;5.38;0.50;;;18.40;95.70;;;;;;5126213;27;20030;-42
2024/04/07 00:42:57;;;;;;;3.65;0.30;;;18.50;95.60;;;;;;5124812;27;20035;-42
2024/04/07 00:45:23;;;;;;;6.28;0.40;;;18.40;95.60;;;;;;5125895;27;20062;-41
2024/04/07 00:47:49;;;;;;;8.38;0.77;;;18.40;95.60;;;;;;5125669;27;20387;-43
2024/04/07 00:50:15;;;;;;;2.17;0.40;;;18.40;95.60;;;;;;5126246;27;20020;-46
2024/04/07 00:52:42;;;;;;;3.95;0.30;;;18.30;95.70;;;;;;5124853;27;20062;-44
2024/04/07 00:55:08;;;;;;;3.65;0.28;;;18.40;95.70;;;;;;5126121;27;20661;-44
2024/04/07 00:57:34;;;;;;;5.95;0.40;;;18.40;95.70;;;;;;5125504;27;20076;-44
2024/04/07 01:00:02;;;;;;;2.42;0.40;;;18.40;95.80;;;;;;5125615;27;20039;-45
2024/04/07 01:02:29;;;;;;;1.70;0.30;;;18.30;95.90;;;;;;5196508;22;20019;-46
2024/04/07 01:04:54;;;;;;;5.85;0.63;;;18.30;96.00;;;;;;5098451;28;20032;-46
2024/04/07 01:07:21;;;;;;;7.35;0.40;;;18.30;96.10;;;;;;5103960;28;20424;-52
2024/04/07 01:09:47;;;;;;;6.75;0.68;;;18.20;96.10;;;;;;5104001;28;20038;-47
2024/04/07 01:12:13;;;;;;;4.68;0.60;;;18.20;96.20;;;;;;5102850;28;20337;-49
2024/04/07 01:14:39;;;;;;;3.40;0.55;;;18.10;96.10;;;;;;5103347;28;20394;-48
2024/04/07 01:17:06;;;;;;;4.75;0.38;;;18.00;96.30;;;;;;5104957;28;20020;-46
2024/04/07 01:19:32;;;;;;;5.75;0.30;;;17.90;96.40;;;;;;5103763;28;20176;-47
2024/04/07 01:21:58;;;;;;;2.60;0.38;;;17.80;96.50;;;;;;5104107;28;20031;-48
2024/04/07 01:24:23;;;;;;;8.60;0.70;;;17.90;96.60;;;;;;5103740;28;20028;-47
2024/04/07 01:26:49;;;;;;;1.88;0.40;;;17.90;96.70;;;;;;5103878;28;20024;-49
2024/04/07 01:29:14;;;;;;;4.20;0.70;;;17.80;96.80;;;;;;5103585;28;20055;-45
2024/04/07 01:31:41;;;;;;;5.20;0.40;;;17.80;96.90;;;;;;5104215;28;20027;-49
2024/04/07 01:34:06;;;;;;;9.48;0.30;;;17.80;97.00;;;;;;5104283;28;20475;-48
2024/04/07 01:36:32;;;;;;;4.32;0.30;;;17.70;97.10;;;;;;5104783;28;20144;-50
2024/04/07 01:38:58;;;;;;;2.83;0.30;;;17.70;97.10;;;;;;5104584;28;20435;-49
2024/04/07 01:41:23;;;;;;;3.03;0.30;;;17.70;97.20;;;;;;5104278;28;20027;-47
2024/04/07 01:43:49;;;;;;;5.88;0.30;;;17.60;97.30;;;;;;5107744;27;20403;-47
2024/04/07 01:46:14;;;;;;;3.20;0.30;;;17.60;97.20;;;;;;5108259;28;20024;-47
2024/04/07 01:48:40;;;;;;;3.53;1.17;;;17.60;97.30;;;;;;5108165;28;20397;-45
2024/04/07 01:51:07;;;;;;;5.55;0.30;;;17.60;97.30;;;;;;5108364;28;20423;-47
2024/04/07 01:53:33;;;;;;;2.58;0.20;;;17.60;97.30;;;;;;5108350;28;20362;-49
2024/04/07 01:55:58;;;;;;;5.40;0.30;;;17.50;97.30;;;;;;5107883;28;20038;-50
2024/04/07 01:58:24;;;;;;;2.90;0.20;;;17.50;97.40;;;;;;5107040;28;20596;-47
2024/04/07 02:00:50;;;;;;;3.58;0.20;;;17.50;97.50;;;;;;5107838;28;20100;-51
2024/04/07 02:03:15;;;;;;;3.70;0.25;;;17.50;97.60;;;;;;5107578;28;20065;-49
2024/04/07 02:05:41;;;;;;;2.13;0.22;;;17.50;97.60;;;;;;5107331;28;20032;-48
2024/04/07 02:08:08;;;;;;;5.00;0.40;;;17.50;97.70;;;;;;5107973;28;20386;-53
2024/04/07 02:10:34;;;;;;;2.20;0.30;;;17.40;97.80;;;;;;5107893;28;20027;-50
2024/04/07 02:13:00;;;;;;;3.40;0.30;;;17.40;97.90;;;;;;5093479;28;20104;-47
2024/04/07 02:15:26;;;;;;;4.97;0.30;;;17.30;98.00;;;;;;5106955;28;20444;-46
2024/04/07 02:17:51;;;;;;;6.20;0.50;;;17.30;98.20;;;;;;5107307;28;20039;-49
2024/04/07 02:20:17;;;;;;;3.60;0.30;;;17.30;98.30;;;;;;5107719;28;20028;-46
2024/04/07 02:22:43;;;;;;;11.90;0.68;;;17.20;98.40;;;;;;5107291;28;20039;-47
2024/04/07 02:25:10;;;;;;;2.40;0.30;;;17.30;98.40;;;;;;5108025;28;20047;-48
2024/04/07 02:27:35;;;;;;;5.15;0.40;;;17.20;98.60;;;;;;5106702;28;20035;-48
2024/04/07 02:30:04;;;;;;;6.63;0.30;;;17.20;98.70;;;;;;5107437;28;20454;-47
2024/04/07 02:32:32;;;;;;;2.08;0.75;;;17.20;98.80;;;;;;5107519;28;20102;-49
2024/04/07 02:34:58;;;;;;;3.15;0.50;;;17.20;98.80;;;;;;5106975;28;20073;-45
2024/04/07 02:37:23;;;;;;;1.73;0.20;;;17.20;98.90;;;;;;5107095;28;20505;-48
2024/04/07 02:39:49;;;;;;;3.13;0.20;;;17.20;98.90;;;;;;5107479;28;20500;-49
2024/04/07 02:42:15;;;;;;;1.98;0.50;;;17.20;98.90;;;;;;5106284;28;20479;-48
2024/04/07 02:50:09;;;;;;;5.38;0.20;;;17.10;98.10;;;;;;5107107;28;20449;-44
2024/04/07 02:52:35;;;;;;;5.28;0.20;;;17.10;97.50;;;;;;5106891;28;20031;-48
2024/04/07 02:55:00;;;;;;;4.85;0.40;;;17.10;97.30;;;;;;5105889;28;20462;-47
2024/04/07 02:57:26;;;;;;;2.05;0.22;;;17.00;97.00;;;;;;5106016;28;20072;-47
2024/04/07 02:59:51;;;;;;;1.42;0.10;;;17.10;96.90;;;;;;5106739;28;20020;-50
2024/04/07 03:02:19;;;;;;;0.50;0.10;;;17.00;96.50;;;;;;5106555;28;20122;-52
2024/04/07 03:04:47;;;;;;;1.35;0.00;;;17.00;96.60;;;;;;5106752;28;20051;-50
2024/04/07 03:07:12;;;;;;;0.40;0.00;;;17.00;96.60;;;;;;5106733;28;20555;-51
2024/04/07 03:09:38;;;;;;;2.08;0.10;;;17.00;96.60;;;;;;5105941;28;20277;-52
2024/04/07 03:12:04;;;;;;;1.52;0.15;;;16.90;96.60;;;;;;5106316;28;20027;-47
2024/04/07 03:14:29;;;;;;;0.43;0.00;;;16.90;96.70;;;;;;5106589;28;20108;-48
2024/04/07 03:16:55;;;;;;;0.85;0.10;;;16.90;96.40;;;;;;5106071;28;20098;-50
2024/04/07 03:19:21;;;;;;;0.30;0.00;;;16.80;96.50;;;;;;5106427;28;20043;-45
2024/04/07 03:21:47;;;;;;;3.58;0.10;;;16.90;96.40;;;;;;5106018;28;20528;-49
2024/04/07 03:24:13;;;;;;;0.90;0.03;;;16.80;96.30;;;;;;5106684;28;20027;-47
2024/04/07 03:26:38;;;;;;;1.95;0.00;;;16.90;96.40;;;;;;5105678;28;20069;-46
2024/04/07 03:29:04;;;;;;;1.33;0.10;;;16.90;96.10;;;;;;5105974;28;20084;-49
2024/04/07 03:31:29;;;;;;;0.70;0.00;;;16.80;96.00;;;;;;5106515;28;20023;-48
2024/04/07 03:33:55;;;;;;;1.30;0.00;;;16.80;95.90;;;;;;5105632;28;20082;-49
2024/04/07 03:36:20;;;;;;;0.28;0.00;;;16.70;95.80;;;;;;5105847;28;20019;-48
2024/04/07 03:38:46;;;;;;;0.00;0.00;;;16.70;95.90;;;;;;5106216;28;20150;-47
2024/04/07 03:41:12;;;;;;;0.65;0.10;;;16.70;95.70;;;;;;5105966;28;20039;-48
2024/04/07 03:43:38;;;;;;;0.75;0.00;;;16.60;95.70;;;;;;5104832;28;20038;-50
2024/04/07 03:46:03;;;;;;;0.47;0.00;;;16.60;95.70;;;;;;5106599;28;20020;-51
2024/04/07 03:48:32;;;;;;;1.55;0.00;;;16.60;95.70;;;;;;5105602;28;20114;-51
2024/04/07 03:50:58;;;;;;;0.28;0.00;;;16.60;95.90;;;;;;5105610;28;20073;-49
2024/04/07 03:53:28;;;;;;;0.28;0.00;;;16.60;95.70;;;;;;5105300;28;20039;-46
2024/04/07 03:55:54;;;;;;;0.15;0.00;;;16.60;95.60;;;;;;5105413;28;20099;-45
2024/04/07 03:58:19;;;;;;;1.23;0.00;;;16.50;95.50;;;;;;5104642;28;20130;-52
2024/04/07 04:00:45;;;;;;;1.40;0.10;;;16.50;95.50;;;;;;5105918;28;20028;-49
2024/04/07 04:03:10;;;;;;;0.40;0.00;;;16.40;95.50;;;;;;5105375;28;20484;-47
2024/04/07 04:05:36;;;;;;;1.88;0.00;;;16.50;95.50;;;;;;5105654;28;20034;-49
2024/04/07 04:08:02;;;;;;;0.10;0.00;;;16.40;95.40;;;;;;5105618;28;20022;-46
2024/04/07 04:10:28;;;;;;;0.00;0.00;;;16.40;95.40;;;;;;5105376;28;20027;-48
2024/04/07 04:12:53;;;;;;;1.10;0.10;;;16.40;95.40;;;;;;5104231;28;20038;-52
2024/04/07 04:15:19;;;;;;;0.38;0.00;;;16.30;95.40;;;;;;5105622;28;20403;-46
2024/04/07 04:17:44;;;;;;;1.17;0.00;;;16.30;95.50;;;;;;5104996;28;20464;-48
2024/04/07 04:20:11;;;;;;;0.35;0.00;;;16.40;95.50;;;;;;5105055;28;20471;-51
2024/04/07 04:22:36;;;;;;;0.03;0.00;;;16.40;95.50;;;;;;5089969;28;20024;-50
2024/04/07 04:25:02;;;;;;;1.35;0.00;;;16.40;95.40;;;;;;5105242;28;20023;-52
2024/04/07 04:27:29;;;;;;;0.60;0.03;;;16.30;95.40;;;;;;5103731;28;20039;-47
2024/04/07 04:29:54;;;;;;;0.55;0.00;;;16.30;95.50;;;;;;5105163;28;20159;-51
2024/04/07 04:32:20;;;;;;;0.30;0.00;;;16.40;95.50;;;;;;5105047;28;20463;-47
2024/04/07 04:34:46;;;;;;;0.43;0.00;;;16.30;95.40;;;;;;5104096;28;20031;-47
2024/04/07 04:37:12;;;;;;;0.20;0.00;;;16.40;95.40;;;;;;5104885;28;20022;-48
2024/04/07 04:39:38;;;;;;;0.40;0.00;;;16.30;95.30;;;;;;5086134;28;20479;-49
2024/04/07 04:42:03;;;;;;;4.25;0.00;;;16.30;95.30;;;;;;5104297;28;20027;-49
2024/04/07 04:44:29;;;;;;;1.73;0.00;;;16.30;95.30;;;;;;5104940;28;20141;-47
2024/04/07 04:46:55;;;;;;;1.92;0.00;;;16.30;95.30;;;;;;5104656;28;20054;-51
2024/04/07 04:49:20;;;;;;;0.50;0.00;;;16.20;95.00;;;;;;5104746;28;20034;-51
2024/04/07 04:51:48;;;;;;;1.17;0.00;;;16.20;95.20;;;;;;5104179;28;20031;-47
2024/04/07 04:54:14;;;;;;;0.50;0.00;;;16.20;95.30;;;;;;5104662;28;20031;-48
2024/04/07 04:56:40;;;;;;;0.20;0.00;;;16.30;95.50;;;;;;5103512;28;20489;-55
2024/04/07 04:59:05;;;;;;;0.10;0.00;;;16.30;95.40;;;;;;5104849;28;20028;-47
2024/04/07 05:01:31;;;;;;;1.45;0.00;;;16.30;95.50;;;;;;5104898;28;20437;-50
2024/04/07 05:03:58;;;;;;;0.77;0.00;;;16.30;95.30;;;;;;5104748;28;20533;-47
2024/04/07 05:06:24;;;;;;;0.20;0.00;;;16.30;95.30;;;;;;5104276;28;20440;-49
2024/04/07 05:08:50;;;;;;;0.47;0.00;;;16.30;95.40;;;;;;5104612;28;20069;-51
2024/04/07 05:11:16;;;;;;;0.55;0.00;;;16.30;95.40;;;;;;5104610;28;20400;-51
2024/04/07 05:13:42;;;;;;;1.77;0.00;;;16.30;95.30;;;;;;5103223;28;20368;-51
2024/04/07 05:16:08;;;;;;;1.00;0.00;;;16.20;95.30;;;;;;5104073;28;20562;-50
2024/04/07 05:18:34;;;;;;;3.45;0.05;;;16.20;95.40;;;;;;5104483;28;20073;-52
2024/04/07 05:21:04;;;;;;;0.65;0.00;;;16.30;95.60;;;;;;5104441;28;20482;-51
2024/04/07 05:23:31;;;;;;;0.20;0.00;;;16.30;95.60;;;;;;5104278;28;20015;-52
2024/04/07 05:26:14;;;;;;;0.40;0.00;;;16.20;95.50;;;;;;5104276;28;20518;-49
2024/04/07 05:28:40;;;;;;;0.25;0.00;;;16.20;95.70;;;;;;5103165;28;20130;-51
2024/04/07 05:31:15;;;;;;;0.90;0.10;;;16.10;95.70;;;;;;5104992;28;20329;-53
2024/04/07 05:33:44;;;;;;;0.55;0.10;;;16.20;95.80;;;;;;5103429;28;20027;-51
2024/04/07 05:36:10;;;;;;;0.30;0.00;;;16.10;95.90;;;;;;5098142;28;20020;-53
2024/04/07 05:38:36;;;;;;;0.10;0.00;;;16.10;96.00;;;;;;5104427;28;20016;-49
2024/04/07 05:41:02;;;;;;;0.28;0.00;;;16.10;96.00;;;;;;5104406;28;20027;-49
2024/04/07 05:43:28;;;;;;;0.70;0.00;;;16.10;96.00;;;;;;5103457;28;20085;-51
2024/04/07 05:45:54;;;;;;;1.02;0.00;;;16.10;96.20;;;;;;5104301;28;20119;-52
2024/04/07 05:48:20;;;;;;;1.65;0.10;;;16.10;96.20;;;;;;5104198;28;20074;-53
2024/04/07 05:50:47;;;;;;;0.25;0.00;;;16.10;96.30;;;;;;5091056;28;20031;-50
2024/04/07 05:53:13;;;;;;;2.17;0.00;;;16.10;96.40;;;;;;5104475;28;20035;-52
2024/04/07 05:55:39;;;;;;;1.48;0.10;;;16.10;96.40;;;;;;5103076;28;20023;-51
2024/04/07 05:58:05;;;;;;;0.65;0.00;;;16.00;96.50;;;;;;5102538;28;20396;-52
2024/04/07 06:00:33;;;;;;;0.68;0.00;;;16.00;96.60;;;;;;5104217;28;20520;-46
2024/04/07 06:02:59;;;;;;;4.50;0.52;;;16.10;96.60;;;;;;5103738;28;20047;-51
2024/04/07 06:05:25;;;;;;;0.73;0.10;;;16.00;96.70;;;;;;5103928;28;20567;-51
2024/04/07 06:07:51;;;;;;;1.67;0.00;;;16.00;96.80;;;;;;5103353;28;20091;-48
2024/04/07 06:10:16;;;;;;;0.60;0.03;;;16.00;96.90;;;;;;5103928;28;20058;-47
2024/04/07 06:12:42;;;;;;;0.45;0.00;;;16.00;96.90;;;;;;5103062;28;20048;-51
2024/04/07 06:15:07;;;;;;;1.85;0.03;;;16.00;96.90;;;;;;5104123;28;20479;-49
2024/04/07 06:17:33;;;;;;;0.55;0.10;;;16.10;96.90;;;;;;5103813;28;20054;-45
2024/04/07 06:19:58;;;;;;;0.17;0.00;;;16.00;97.00;;;;;;5103700;28;20027;-50
2024/04/07 06:22:24;;;;;;;1.02;0.00;;;16.00;96.90;;;;;;5103608;28;20526;-48
2024/04/07 06:24:50;;;;;;;0.65;0.10;;;16.00;97.00;;;;;;5103920;28;20026;-47
2024/04/07 06:27:15;;;;;;;1.13;0.00;;;16.00;97.00;;;;;;5102919;28;20504;-50
2024/04/07 06:29:41;;;;;;;3.35;0.10;;;16.00;97.20;;;;;;5105778;28;20035;-49
2024/04/07 06:32:06;;;;;;;0.77;0.20;;;16.00;97.20;;;;;;5107539;28;20035;-51
2024/04/07 06:34:32;;;;;;;0.17;0.00;;;16.00;97.20;;;;;;5107641;28;20024;-52
2024/04/07 06:36:57;;;;;;;1.05;0.00;;;16.00;97.20;;;;;;5107546;28;20107;-49
2024/04/07 06:39:23;;;;;;;0.70;0.10;;;16.00;97.30;;;;;;5107564;28;20712;-50
2024/04/07 06:41:48;;;;;;;1.33;0.10;;;16.00;97.30;;;;;;5106207;28;20548;-49
2024/04/07 06:44:14;;;;;;;0.85;0.00;;;16.00;97.40;;;;;;5107251;28;20023;-48
2024/04/07 06:46:39;;;;;;;0.73;0.00;;;16.00;97.40;;;;;;5106953;28;20505;-51
2024/04/07 06:49:05;;;;;;;0.70;0.10;;;16.10;97.50;;;;;;5107991;28;20073;-52
2024/04/07 06:51:31;;;;;;;0.20;0.00;;;16.10;97.40;;;;;;5107054;28;20518;-49
2024/04/07 06:53:58;;;;;;;1.65;0.10;;;16.10;97.50;;;;;;5106176;28;20047;-50
2024/04/07 06:56:23;;;;;;;1.85;0.10;;;16.10;97.50;;;;;;5106041;28;20023;-49
2024/04/07 06:58:49;;;;;;;0.10;0.00;;;16.10;97.50;;;;;;5106748;28;20019;-46
2024/04/07 07:01:14;;;;;;;0.90;0.10;;;16.10;97.70;;;;;;5107249;28;20072;-52
2024/04/07 07:03:40;;;;;;;0.95;0.00;;;16.00;97.70;;;;;;5106383;28;20329;-51
2024/04/07 07:06:05;;;;;;;1.65;0.10;;;16.00;97.80;;;;;;5106808;28;20047;-49
2024/04/07 07:08:31;;;;;;;0.82;0.10;;;16.00;97.90;;;;;;5106955;28;20045;-45
2024/04/07 07:11:00;;;;;;;0.60;0.10;;;16.00;98.00;;;;;;5106325;28;20619;-49
2024/04/07 07:13:30;;;;;;;1.45;0.20;;;16.00;98.00;;;;;;5103556;28;20023;-47
2024/04/07 07:15:56;;;;;;;4.32;0.10;;;16.10;98.10;;;;;;5106994;28;20383;-50
2024/04/07 07:18:22;;;;;;;0.60;0.10;;;16.10;98.10;;;;;;5106376;28;20416;-46
2024/04/07 07:20:48;;;;;;;3.10;0.10;;;16.10;98.20;;;;;;5105757;28;20034;-45
2024/04/07 07:23:15;;;;;;;3.40;0.10;;;16.10;98.30;;;;;;5106515;28;20099;-53
2024/04/07 07:25:41;;;;;;;2.25;0.20;;;16.20;98.40;;;;;;5106030;28;20423;-45
2024/04/07 07:28:07;;;;;;;2.03;0.10;;;16.20;98.40;;;;;;5105837;28;20108;-48
2024/04/07 07:30:33;;;;;;;2.10;0.20;;;16.20;98.40;;;;;;5106611;28;20465;-44
2024/04/07 07:32:58;;;;;;;2.88;0.10;;;16.30;98.50;;;;;;5106215;28;20103;-49
2024/04/07 07:35:24;;;;;;;2.17;0.10;;;16.30;98.60;;;;;;5105625;28;20036;-49
2024/04/07 07:37:49;;;;;;;1.67;0.10;;;16.50;98.60;;;;;;5105787;28;20028;-49
2024/04/07 07:40:15;;;;;;;4.47;0.20;;;16.50;98.40;;;;;;5105486;28;20032;-47
2024/04/07 07:42:41;;;;;;;0.88;0.10;;;16.60;98.20;;;;;;5100533;27;20051;-50
2024/04/07 07:45:07;;;;;;;4.47;0.82;;;16.60;98.30;;;;;;5109322;27;20028;-52
2024/04/07 07:47:32;;;;;;;2.03;0.22;;;16.70;98.30;;;;;;5106222;28;20024;-48
2024/04/07 07:49:58;;;;;;;1.48;0.10;;;16.70;98.40;;;;;;5107028;27;20011;-52
2024/04/07 07:52:24;;;;;;;3.17;0.20;;;16.70;98.40;;;;;;5107505;27;20031;-52
2024/04/07 07:54:52;;;;;;;3.50;0.20;;;16.70;98.20;;;;;;5109074;27;20027;-47
2024/04/07 07:57:18;;;;;;;1.50;0.20;;;16.70;98.20;;;;;;5105386;28;20562;-49
2024/04/07 07:59:43;;;;;;;1.40;0.30;;;16.80;98.40;;;;;;5105341;28;20047;-48
2024/04/07 08:02:09;;;;;;;4.65;0.20;;;16.80;98.30;;;;;;5105600;28;20456;-51
2024/04/07 08:04:34;;;;;;;2.80;0.10;;;16.90;98.40;;;;;;5105463;28;20082;-49
2024/04/07 08:07:00;;;;;;;2.33;0.38;;;16.90;98.30;;;;;;5098732;28;20051;-48
2024/04/07 08:09:25;;;;;;;4.13;0.20;;;16.90;98.30;;;;;;5104838;28;20302;-50
2024/04/07 08:11:51;;;;;;;5.97;0.20;;;16.90;98.10;;;;;;5108000;27;20039;-51
2024/04/07 08:14:17;;;;;;;2.20;0.20;;;16.90;98.10;;;;;;5105425;28;20058;-49
2024/04/07 08:16:43;;;;;;;0.80;0.10;;;17.00;98.10;;;;;;5106843;27;20400;-51
2024/04/07 08:19:08;;;;;;;2.95;0.20;;;17.00;98.00;;;;;;5102599;27;20063;-49
2024/04/07 08:21:35;;;;;;;4.47;0.40;;;17.10;98.10;;;;;;5104317;28;20423;-48
2024/04/07 08:24:00;;;;;;;2.00;0.15;;;17.10;98.10;;;;;;5104428;28;20443;-51
2024/04/07 08:26:26;;;;;;;1.73;0.22;;;17.20;97.90;;;;;;5103507;28;20530;-47
2024/04/07 08:28:52;;;;;;;3.05;0.20;;;17.20;97.70;;;;;;5104773;28;20031;-49
2024/04/07 08:31:18;;;;;;;1.98;0.13;;;17.30;97.70;;;;;;5108129;27;20153;-50
2024/04/07 08:33:43;;;;;;;2.25;0.20;;;17.30;97.70;;;;;;5104467;28;20117;-50
2024/04/07 08:36:09;;;;;;;2.20;0.10;;;17.40;97.80;;;;;;5105740;28;20379;-51
2024/04/07 08:38:34;;;;;;;1.75;0.10;;;17.50;97.50;;;;;;5104320;28;20431;-49
2024/04/07 08:41:00;;;;;;;0.95;0.10;;;17.60;97.40;;;;;;5103855;28;20035;-46
2024/04/07 08:43:27;;;;;;;2.63;0.20;;;17.60;97.20;;;;;;5105204;28;20027;-49
2024/04/07 08:45:54;;;;;;;1.65;0.10;;;17.70;97.20;;;;;;5104816;28;20118;-48
2024/04/07 08:48:22;;;;;;;1.20;0.10;;;17.70;97.10;;;;;;5104559;28;20023;-54
2024/04/07 08:50:48;;;;;;;2.22;0.20;;;17.80;97.00;;;;;;5104183;28;20130;-52
2024/04/07 08:53:15;;;;;;;4.15;0.20;;;17.80;96.90;;;;;;5102930;28;20031;-52
2024/04/07 08:55:41;;;;;;;2.72;0.10;;;17.80;96.70;;;;;;5104184;28;20055;-51
2024/04/07 08:58:08;;;;;;;1.67;0.10;;;17.80;96.70;;;;;;5108290;27;20047;-53
2024/04/07 09:00:38;;;;;;;1.08;0.10;;;17.80;96.80;;;;;;5105245;28;20035;-52
2024/04/07 09:03:04;;;;;;;0.98;0.10;;;17.80;96.60;;;;;;5104638;28;20047;-51
2024/04/07 09:05:30;;;;;;;4.13;0.10;;;17.80;96.40;;;;;;5104290;28;20028;-53
2024/04/07 09:07:56;;;;;;;1.77;0.20;;;17.80;96.50;;;;;;5097425;28;20138;-51
2024/04/07 09:10:21;;;;;;;5.15;0.20;;;17.90;96.60;;;;;;5104311;28;20028;-49
2024/04/07 09:12:51;;;;;;;2.78;0.47;;;17.90;96.50;;;;;;5103394;28;20161;-51
2024/04/07 09:15:17;;;;;;;0.70;0.10;;;17.90;96.70;;;;;;5104065;28;20028;-50
2024/04/07 09:17:43;;;;;;;2.60;0.10;;;18.00;96.70;;;;;;5103982;28;20088;-53
2024/04/07 09:20:18;;;;;;;0.82;0.28;;;18.10;96.50;;;;;;5104238;28;20031;-52
2024/04/07 09:22:46;;;;;;;2.35;0.10;;;18.20;96.40;;;;;;5103053;28;20076;-50
2024/04/07 09:25:11;;;;;;;0.55;0.00;;;18.20;96.40;;;;;;5106929;28;20114;-49
2024/04/07 09:27:37;;;;;;;0.75;0.13;;;18.30;96.50;;;;;;5102867;28;20111;-51
2024/04/07 09:30:05;;;;;;;0.95;0.10;;;18.30;96.60;;;;;;5104481;28;20063;-51
2024/04/07 09:32:31;;;;;;;0.80;0.10;;;18.50;96.40;;;;;;5103684;28;20016;-47
2024/04/07 09:34:57;;;;;;;1.95;0.10;;;18.60;96.20;;;;;;5103326;28;20027;-46
2024/04/07 09:37:22;;;;;;;3.13;0.10;;;18.70;96.00;;;;;;5108461;28;20073;-46
2024/04/07 09:39:48;;;;;;;3.30;0.15;;;18.70;95.90;;;;;;5086774;28;20088;-48
2024/04/07 09:42:19;;;;;;;1.60;0.10;;;18.80;96.00;;;;;;5103395;28;20028;-44
2024/04/07 09:44:47;;;;;;;1.45;0.10;;;18.80;95.50;;;;;;5103755;28;20088;-51
2024/04/07 09:47:14;;;;;;;0.98;0.15;;;18.90;95.10;;;;;;5104296;28;20015;-44
2024/04/07 09:49:40;;;;;;;2.65;0.10;;;18.90;94.70;;;;;;5103450;28;20044;-44
2024/04/07 09:52:08;;;;;;;0.60;0.10;;;18.90;94.20;;;;;;5106400;28;20024;-49
2024/04/07 09:54:48;;;;;;;0.38;0.00;;;18.80;94.30;;;;;;5104111;28;20036;-49
2024/04/07 09:57:17;;;;;;;4.15;0.10;;;18.80;94.50;;;;;;5102614;28;20031;-46
2024/04/07 09:59:44;;;;;;;1.17;0.10;;;18.80;94.50;;;;;;5103187;28;20032;-48
2024/04/07 10:02:11;;;;;;;0.90;0.10;;;18.90;94.80;;;;;;5103738;28;20027;-51
2024/04/07 10:04:39;;;;;;;1.13;0.32;;;18.90;94.60;;;;;;5107670;28;20051;-52
2024/04/07 10:07:06;;;;;;;0.85;0.13;;;19.00;94.60;;;;;;5107957;27;20023;-46
2024/04/07 10:09:32;;;;;;;2.45;0.10;;;19.00;94.70;;;;;;5107873;28;20107;-51
2024/04/07 10:11:58;;;;;;;1.08;0.10;;;19.00;94.10;;;;;;5106604;28;20027;-50
2024/04/07 10:14:24;;;;;;;3.70;0.50;;;19.10;94.60;;;;;;5106781;28;20085;-49
2024/04/07 10:16:51;;;;;;;1.08;0.10;;;19.10;94.20;;;;;;5107382;28;20023;-49
2024/04/07 10:19:24;;;;;;;1.75;0.10;;;19.20;94.20;;;;;;5107538;28;20471;-46
2024/04/07 10:21:50;;;;;;;2.03;0.10;;;19.20;94.20;;;;;;5106543;28;20028;-44
2024/04/07 10:24:19;;;;;;;1.15;0.10;;;19.30;94.40;;;;;;5101527;28;20046;-44
2024/04/07 10:26:58;;;;;;;0.85;0.10;;;19.40;93.40;;;;;;5105907;28;20019;-48
2024/04/07 10:29:30;;;;;;;1.02;0.10;;;19.40;93.30;;;;;;5102307;28;20391;-49
2024/04/07 10:31:56;;;;;;;1.60;0.00;;;19.40;92.90;;;;;;5107210;28;20430;-48
2024/04/07 10:34:22;;;;;;;2.25;0.10;;;19.40;92.40;;;;;;5106342;28;20040;-48
2024/04/07 10:36:56;;;;;;;1.00;0.00;;;19.40;92.20;;;;;;5106318;28;20104;-47
2024/04/07 10:39:27;;;;;;;2.22;0.00;;;19.40;92.40;;;;;;5106776;28;20130;-47
2024/04/07 10:41:52;;;;;;;1.20;0.00;;;19.40;92.20;;;;;;5106296;28;20110;-51
2024/04/07 10:44:19;;;;;;;0.60;0.10;;;19.50;91.60;;;;;;5104319;28;20114;-51
2024/04/07 10:46:45;;;;;;;1.45;0.10;;;19.50;91.60;;;;;;5106523;28;20499;-50
2024/04/07 10:49:11;;;;;;;1.70;0.00;;;19.50;91.70;;;;;;5106685;28;20039;-47
2024/04/07 10:51:37;;;;;;;1.40;0.10;;;19.50;91.70;;;;;;5105912;28;20043;-53
2024/04/07 10:54:10;;;;;;;1.80;0.10;;;19.50;91.70;;;;;;5106583;28;20080;-48
2024/04/07 10:56:35;;;;;;;0.22;0.00;;;19.50;91.80;;;;;;5105516;27;20505;-50
2024/04/07 10:59:02;;;;;;;1.58;0.10;;;19.50;91.80;;;;;;5108510;27;20031;-45
2024/04/07 11:01:28;;;;;;;0.85;0.10;;;19.60;92.40;;;;;;5106577;28;20024;-49
2024/04/07 11:03:58;;;;;;;2.88;0.03;;;19.60;92.10;;;;;;5107612;27;20808;-50
2024/04/07 11:06:25;;;;;;;0.55;0.10;;;19.70;92.20;;;;;;5105289;28;20051;-49
2024/04/07 11:08:51;;;;;;;2.15;0.10;;;19.70;92.00;;;;;;5106272;28;20030;-49
2024/04/07 11:11:19;;;;;;;1.35;0.10;;;19.70;92.30;;;;;;5106005;28;20051;-50
2024/04/07 11:13:46;;;;;;;3.28;0.10;;;19.70;92.10;;;;;;5105137;28;20067;-50
2024/04/07 11:16:12;;;;;;;1.13;0.10;;;19.80;91.70;;;;;;5105994;28;20089;-48
2024/04/07 11:18:38;;;;;;;1.05;0.13;;;19.80;91.80;;;;;;5103249;28;20051;-51
2024/04/07 11:21:06;;;;;;;1.23;0.10;;;19.80;91.30;;;;;;5106032;28;20134;-49
2024/04/07 11:23:35;;;;;;;1.30;0.10;;;19.90;91.10;;;;;;5101815;28;20024;-48
2024/04/07 11:26:00;;;;;;;1.95;0.10;;;19.90;90.70;;;;;;5105048;28;20069;-51
2024/04/07 11:28:26;;;;;;;1.20;0.00;;;19.90;90.90;;;;;;5106134;28;20039;-47
2024/04/07 11:30:55;;;;;;;0.35;0.00;;;19.90;90.70;;;;;;5105771;28;20436;-45
2024/04/07 11:33:23;;;;;;;1.05;0.00;;;20.00;90.50;;;;;;5105253;28;20333;-46
2024/04/07 11:35:48;;;;;;;1.02;0.00;;;20.00;90.20;;;;;;5104806;28;20020;-49
2024/04/07 11:38:14;;;;;;;2.67;0.00;;;20.00;89.10;;;;;;5106341;28;20022;-49
2024/04/07 11:40:40;;;;;;;1.73;0.10;;;20.00;90.00;;;;;;5104402;28;20039;-46
2024/04/07 11:43:07;;;;;;;1.25;0.00;;;20.00;89.80;;;;;;5104859;27;20058;-54
2024/04/07 11:45:33;;;;;;;0.80;0.10;;;20.10;89.80;;;;;;5106185;28;20039;-48
2024/04/07 11:47:59;;;;;;;2.72;0.10;;;20.10;88.80;;;;;;5104908;28;20023;-48
2024/04/07 11:50:25;;;;;;;0.57;0.00;;;20.10;88.90;;;;;;5104951;28;20038;-47
2024/04/07 11:52:50;;;;;;;2.10;0.38;;;20.20;89.60;;;;;;5100987;28;20038;-44
2024/04/07 11:55:16;;;;;;;1.05;0.00;;;20.20;88.40;;;;;;5105216;28;20484;-46
2024/04/07 11:57:42;;;;;;;0.88;0.08;;;20.30;87.90;;;;;;5104133;28;20035;-49
2024/04/07 12:00:08;;;;;;;0.10;0.00;;;20.20;88.30;;;;;;5105366;28;20023;-48
2024/04/07 12:02:34;;;;;;;0.63;0.00;;;20.30;88.20;;;;;;5107373;27;20019;-50
2024/04/07 12:05:01;;;;;;;0.75;0.00;;;20.40;87.80;;;;;;5104918;28;20400;-46
2024/04/07 12:07:26;;;;;;;0.32;0.00;;;20.40;88.00;;;;;;5104931;28;20508;-48
2024/04/07 12:09:52;;;;;;;0.57;0.00;;;20.40;88.40;;;;;;5103924;28;20046;-44
2024/04/07 12:12:18;;;;;;;0.55;0.10;;;20.50;88.00;;;;;;5104647;28;20110;-46
2024/04/07 12:14:43;;;;;;;3.10;0.00;;;20.50;87.10;;;;;;5097927;28;20194;-44
2024/04/07 12:17:09;;;;;;;0.35;0.00;;;20.50;87.70;;;;;;5105282;28;20110;-44
2024/04/07 12:19:34;;;;;;;0.22;0.00;;;20.50;87.30;;;;;;5105428;28;20130;-52
2024/04/07 12:22:07;;;;;;;0.73;0.00;;;20.60;87.00;;;;;;5104983;28;20768;-47
2024/04/07 12:24:32;;;;;;;0.43;0.00;;;20.60;86.50;;;;;;5105600;28;20055;-48
2024/04/07 12:26:58;;;;;;;0.17;0.00;;;20.60;86.70;;;;;;5085710;28;20128;-50
2024/04/07 12:29:23;;;;;;;0.30;0.00;;;20.70;87.40;;;;;;5104947;28;20019;-46
2024/04/07 12:31:49;;;;;;;0.60;0.00;;;20.70;90.50;;;;;;5104664;28;20024;-44
2024/04/07 12:34:15;;;;;;;0.52;0.00;;;20.70;90.80;;;;;;5104860;28;20042;-46
2024/04/07 12:36:41;;;;;;;1.45;0.00;;;20.70;90.60;;;;;;5104821;28;20421;-46
2024/04/07 12:39:08;;;;;;;1.42;0.00;;;20.70;91.10;;;;;;5105354;28;20028;-54
2024/04/07 12:41:37;;;;;;;0.22;0.00;;;20.70;90.80;;;;;;5104073;28;20023;-46
2024/04/07 12:44:07;;;;;;;0.68;0.08;;;20.70;90.40;;;;;;5105140;28;20035;-46
2024/04/07 12:46:32;;;;;;;0.82;0.03;;;20.80;90.80;;;;;;5104666;28;20039;-47
2024/04/07 12:48:58;;;;;;;0.60;0.00;;;20.90;90.90;;;;;;5104060;28;20396;-47